createdAt,value
2018-05-11T00:01:30.931Z,29.53
2018-05-11T00:03:57.378Z,31.00
2018-05-11T00:06:23.778Z,29.00
2018-05-11T00:08:50.419Z,28.87
2018-05-11T00:11:16.831Z,29.77
2018-05-11T00:13:43.136Z,30.43
2018-05-11T00:16:09.466Z,28.93
2018-05-11T00:18:35.891Z,30.53
2018-05-11T00:21:02.345Z,30.53
2018-05-11T00:23:28.757Z,26.43
2018-05-11T00:25:55.031Z,28.13
2018-05-11T00:28:21.289Z,30.17
2018-05-11T00:30:47.765Z,28.63
2018-05-11T00:33:14.080Z,27.27
2018-05-11T00:35:40.447Z,28.80
2018-05-11T00:38:06.743Z,25.60
2018-05-11T00:40:33.095Z,24.43
2018-05-11T00:42:59.396Z,23.53
2018-05-11T00:45:26.927Z,24.30
2018-05-11T00:47:53.235Z,26.07
2018-05-11T00:50:20.346Z,24.63
2018-05-11T00:52:46.792Z,24.47
2018-05-11T00:55:25.536Z,23.63
2018-05-11T00:57:51.952Z,23.90
2018-05-11T01:00:21.322Z,25.00
2018-05-11T01:02:47.608Z,22.77
2018-05-11T01:05:13.974Z,21.47
2018-05-11T01:07:40.325Z,23.37
2018-05-11T01:10:06.721Z,22.80
2018-05-11T01:12:33.043Z,23.83
2018-05-11T01:14:59.388Z,22.87
2018-05-11T01:17:25.747Z,24.77
2018-05-11T01:19:52.115Z,22.90
2018-05-11T01:22:18.411Z,20.87
2018-05-11T01:24:44.776Z,26.73
2018-05-11T01:27:11.171Z,21.77
2018-05-11T01:29:37.572Z,20.53
2018-05-11T01:32:04.106Z,23.03
2018-05-11T01:34:30.638Z,25.37
2018-05-11T01:36:57.831Z,22.17
2018-05-11T01:39:24.243Z,26.83
2018-05-11T01:41:50.591Z,22.73
2018-05-11T01:44:17.762Z,22.43
2018-05-11T01:46:44.089Z,22.97
2018-05-11T01:49:10.362Z,21.43
2018-05-11T01:51:36.720Z,20.63
2018-05-11T01:54:03.258Z,23.50
2018-05-11T01:56:29.701Z,20.60
2018-05-11T01:58:56.056Z,20.83
2018-05-11T02:01:22.370Z,20.77
2018-05-11T02:03:49.563Z,19.33
2018-05-11T02:06:15.909Z,19.30
2018-05-11T02:08:42.207Z,20.90
2018-05-11T02:11:08.566Z,18.30
2018-05-11T02:13:35.652Z,22.53
2018-05-11T02:16:02.039Z,21.10
2018-05-11T02:18:28.319Z,19.07
2018-05-11T02:20:55.421Z,19.67
2018-05-11T02:23:21.765Z,17.10
2018-05-11T02:25:48.183Z,18.80
2018-05-11T02:28:14.545Z,24.03
2018-05-11T02:30:40.910Z,21.30
2018-05-11T02:33:07.325Z,18.10
2018-05-11T02:35:33.619Z,18.13
2018-05-11T02:37:59.931Z,19.00
2018-05-11T02:40:26.295Z,19.70
2018-05-11T02:42:52.636Z,20.07
2018-05-11T02:45:19.111Z,17.30
2018-05-11T02:47:45.477Z,20.20
2018-05-11T02:50:11.837Z,16.20
2018-05-11T02:52:38.245Z,16.97
2018-05-11T02:55:05.431Z,17.77
2018-05-11T02:57:31.830Z,21.23
2018-05-11T02:59:58.181Z,17.83
2018-05-11T03:02:24.545Z,22.77
2018-05-11T03:04:51.539Z,18.60
2018-05-11T03:07:17.912Z,19.17
2018-05-11T03:09:44.658Z,19.13
2018-05-11T03:12:12.386Z,21.27
2018-05-11T03:14:39.023Z,18.87
2018-05-11T03:17:06.146Z,18.20
2018-05-11T03:19:32.504Z,19.60
2018-05-11T03:21:58.841Z,19.03
2018-05-11T03:24:25.278Z,18.20
2018-05-11T03:26:51.634Z,22.63
2018-05-11T03:29:18.081Z,22.23
2018-05-11T03:31:44.542Z,20.00
2018-05-11T03:34:10.864Z,17.13
2018-05-11T03:36:37.298Z,20.87
2018-05-11T03:39:03.569Z,21.17
2018-05-11T03:41:29.972Z,19.77
2018-05-11T03:43:56.390Z,19.73
2018-05-11T03:46:23.518Z,19.77
2018-05-11T03:48:49.879Z,20.70
2018-05-11T03:51:16.274Z,20.67
2018-05-11T03:53:42.595Z,20.27
2018-05-11T03:56:08.904Z,20.40
2018-05-11T03:58:36.062Z,19.77
2018-05-11T04:01:02.423Z,24.33
2018-05-11T04:03:41.714Z,19.17
2018-05-11T04:09:06.843Z,23.13
2018-05-11T04:11:33.096Z,21.53
2018-05-11T04:13:59.405Z,20.03
2018-05-11T04:16:25.705Z,17.90
2018-05-11T04:18:52.044Z,19.60
2018-05-11T04:21:18.364Z,15.90
2018-05-11T04:23:44.796Z,23.53
2018-05-11T04:26:11.188Z,19.10
2018-05-11T04:28:37.560Z,21.73
2018-05-11T04:31:04.700Z,19.50
2018-05-11T04:33:31.044Z,22.27
2018-05-11T04:35:57.360Z,17.87
2018-05-11T04:38:23.690Z,22.30
2018-05-11T04:40:50.007Z,19.83
2018-05-11T04:43:16.356Z,22.60
2018-05-11T04:45:42.703Z,22.40
2018-05-11T04:48:09.072Z,16.97
2018-05-11T04:50:35.405Z,19.13
2018-05-11T04:53:01.755Z,22.67
2018-05-11T04:55:28.107Z,20.10
2018-05-11T04:57:54.673Z,21.87
2018-05-11T05:00:21.056Z,20.43
2018-05-11T05:02:47.433Z,20.43
2018-05-11T05:05:13.823Z,20.93
2018-05-11T05:07:40.211Z,22.77
2018-05-11T05:10:06.565Z,21.37
2018-05-11T05:12:32.902Z,22.07
2018-05-11T05:14:59.409Z,20.87
2018-05-11T05:17:25.794Z,22.00
2018-05-11T05:19:52.195Z,22.80
2018-05-11T05:22:19.078Z,21.93
2018-05-11T05:24:45.475Z,20.57
2018-05-11T05:27:11.822Z,18.47
2018-05-11T05:29:38.125Z,17.63
2018-05-11T05:32:04.559Z,16.27
2018-05-11T05:34:30.973Z,20.30
2018-05-11T05:36:57.310Z,21.03
2018-05-11T05:39:23.762Z,20.43
2018-05-11T05:41:50.239Z,24.83
2018-05-11T05:44:16.626Z,22.03
2018-05-11T05:46:42.965Z,20.63
2018-05-11T05:49:09.333Z,21.77
2018-05-11T05:51:35.672Z,20.20
2018-05-11T05:54:02.103Z,21.73
2018-05-11T05:56:28.467Z,19.53
2018-05-11T05:58:54.813Z,23.73
2018-05-11T06:01:21.120Z,22.87
2018-05-11T06:03:47.487Z,19.63
2018-05-11T06:06:13.842Z,23.00
2018-05-11T06:08:40.146Z,22.83
2018-05-11T06:11:06.456Z,20.10
2018-05-11T06:13:32.850Z,23.33
2018-05-11T06:15:59.122Z,23.57
2018-05-11T06:18:25.488Z,21.33
2018-05-11T06:20:52.584Z,21.10
2018-05-11T06:23:19.666Z,21.33
2018-05-11T06:25:46.094Z,20.77
2018-05-11T06:28:12.531Z,21.97
2018-05-11T06:30:38.894Z,22.47
2018-05-11T06:33:05.256Z,21.87
2018-05-11T06:35:31.593Z,21.93
2018-05-11T06:37:58.269Z,20.27
2018-05-11T06:40:24.649Z,22.00
2018-05-11T06:42:51.717Z,26.47
2018-05-11T06:45:18.043Z,17.90
2018-05-11T06:47:44.777Z,19.83
2018-05-11T06:50:11.954Z,19.93
2018-05-11T06:52:38.310Z,19.20
2018-05-11T06:55:04.661Z,23.77
2018-05-11T06:57:31.015Z,16.40
2018-05-11T06:59:57.418Z,18.83
2018-05-11T07:02:24.512Z,17.10
2018-05-11T07:04:50.955Z,14.40
2018-05-11T07:07:17.299Z,20.03
2018-05-11T07:09:43.743Z,16.47
2018-05-11T07:12:10.140Z,17.27
2018-05-11T07:14:36.516Z,15.03
2018-05-11T07:17:02.987Z,16.63
2018-05-11T07:19:29.284Z,15.30
2018-05-11T07:21:55.643Z,15.87
2018-05-11T07:24:22.226Z,18.47
2018-05-11T07:26:49.140Z,15.83
2018-05-11T07:29:15.620Z,17.07
2018-05-11T07:31:41.965Z,15.10
2018-05-11T07:34:09.133Z,17.40
2018-05-11T07:36:35.706Z,17.10
2018-05-11T07:39:02.111Z,16.50
2018-05-11T07:41:28.757Z,16.07
2018-05-11T07:43:55.665Z,12.07
2018-05-11T07:46:22.096Z,12.33
2018-05-11T07:48:48.499Z,14.43
2018-05-11T07:51:15.031Z,13.17
2018-05-11T07:53:42.246Z,16.23
2018-05-11T07:56:08.661Z,11.53
2018-05-11T07:58:35.070Z,15.10
2018-05-11T08:01:02.307Z,13.03
2018-05-11T08:03:28.640Z,13.47
2018-05-11T08:05:55.128Z,11.63
2018-05-11T08:08:21.676Z,14.73
2018-05-11T08:10:48.051Z,15.50
2018-05-11T08:13:15.205Z,14.87
2018-05-11T08:15:42.267Z,13.77
2018-05-11T08:18:08.710Z,14.50
2018-05-11T08:20:35.904Z,13.07
2018-05-11T08:23:02.238Z,11.90
2018-05-11T08:25:28.529Z,15.50
2018-05-11T08:27:54.905Z,11.20
2018-05-11T08:30:22.049Z,13.37
2018-05-11T08:32:48.446Z,11.97
2018-05-11T08:35:14.937Z,11.90
2018-05-11T08:37:41.273Z,9.70
2018-05-11T08:40:07.602Z,12.43
2018-05-11T08:42:33.959Z,12.40
2018-05-11T08:45:00.323Z,12.27
2018-05-11T08:47:27.405Z,12.73
2018-05-11T08:49:53.676Z,13.17
2018-05-11T08:52:20.001Z,15.97
2018-05-11T08:54:46.317Z,11.97
2018-05-11T08:57:13.347Z,11.93
2018-05-11T08:59:39.693Z,16.60
2018-05-11T09:02:06.816Z,10.87
2018-05-11T09:04:33.172Z,10.70
2018-05-11T09:06:59.567Z,14.20
2018-05-11T09:09:25.999Z,16.27
2018-05-11T09:11:59.403Z,13.93
2018-05-11T09:14:26.858Z,12.83
2018-05-11T09:16:53.138Z,10.33
2018-05-11T09:19:20.263Z,11.33
2018-05-11T09:21:46.724Z,12.73
2018-05-11T09:24:13.115Z,11.53
2018-05-11T09:26:39.536Z,12.43
2018-05-11T09:29:06.671Z,14.87
2018-05-11T09:31:33.150Z,15.30
2018-05-11T09:33:59.596Z,14.43
2018-05-11T09:36:26.734Z,15.97
2018-05-11T09:38:53.932Z,17.60
2018-05-11T09:41:20.315Z,17.00
2018-05-11T09:43:46.856Z,12.70
2018-05-11T09:46:13.450Z,12.90
2018-05-11T09:48:40.541Z,16.43
2018-05-11T09:51:06.896Z,14.03
2018-05-11T09:53:33.282Z,13.27
2018-05-11T09:55:59.726Z,15.40
2018-05-11T09:58:26.075Z,11.63
2018-05-11T10:00:52.449Z,13.37
2018-05-11T10:03:18.810Z,11.00
2018-05-11T10:05:45.282Z,10.47
2018-05-11T10:08:11.674Z,12.50
2018-05-11T10:10:38.073Z,14.87
2018-05-11T10:13:04.395Z,15.03
2018-05-11T10:15:30.791Z,22.57
2018-05-11T10:17:57.174Z,16.33
2018-05-11T10:20:23.605Z,12.37
2018-05-11T10:22:49.949Z,12.83
2018-05-11T10:25:16.265Z,12.27
2018-05-11T10:27:42.659Z,12.93
2018-05-11T10:30:09.010Z,12.37
2018-05-11T10:32:35.309Z,13.93
2018-05-11T10:35:01.588Z,12.40
2018-05-11T10:37:28.133Z,12.97
2018-05-11T10:39:54.605Z,14.03
2018-05-11T10:42:21.031Z,12.60
2018-05-11T10:44:47.358Z,12.53
2018-05-11T10:47:13.770Z,11.93
2018-05-11T10:49:40.134Z,11.47
2018-05-11T10:52:07.330Z,10.37
2018-05-11T10:54:33.722Z,11.40
2018-05-11T10:57:00.237Z,11.10
2018-05-11T10:59:26.567Z,9.83
2018-05-11T11:01:52.932Z,11.10
2018-05-11T11:04:19.268Z,9.70
2018-05-11T11:06:45.757Z,10.50
2018-05-11T11:09:12.907Z,10.97
2018-05-11T11:11:39.262Z,11.70
2018-05-11T11:14:05.610Z,11.50
2018-05-11T11:16:32.709Z,11.73
2018-05-11T11:18:59.043Z,12.53
2018-05-11T11:21:25.394Z,12.70
2018-05-11T11:23:51.782Z,14.77
2018-05-11T11:26:21.322Z,13.13
2018-05-11T11:28:48.437Z,15.43
2018-05-11T11:31:14.823Z,10.73
2018-05-11T11:33:41.916Z,12.83
2018-05-11T11:36:12.875Z,12.93
2018-05-11T11:38:39.221Z,12.37
2018-05-11T11:41:05.785Z,11.20
2018-05-11T11:43:32.003Z,12.30
2018-05-11T11:45:58.347Z,12.07
2018-05-11T11:48:24.692Z,13.13
2018-05-11T11:50:51.049Z,12.57
2018-05-11T11:53:17.453Z,11.00
2018-05-11T11:55:44.650Z,10.50
2018-05-11T11:58:10.972Z,10.60
2018-05-11T12:00:37.413Z,10.60
2018-05-11T12:03:04.568Z,9.70
2018-05-11T12:05:31.687Z,10.93
2018-05-11T12:07:58.072Z,12.63
2018-05-11T12:10:25.213Z,8.53
2018-05-11T12:12:51.614Z,11.27
2018-05-11T12:15:18.038Z,10.10
2018-05-11T12:17:44.466Z,10.60
2018-05-11T12:20:11.715Z,12.53
2018-05-11T12:22:38.175Z,12.93
2018-05-11T12:25:05.267Z,10.47
2018-05-11T12:27:31.738Z,10.77
2018-05-11T12:29:58.100Z,10.70
2018-05-11T12:32:24.436Z,10.10
2018-05-11T12:34:50.886Z,8.67
2018-05-11T12:37:17.113Z,11.77
2018-05-11T12:39:43.570Z,10.00
2018-05-11T12:42:09.941Z,13.23
2018-05-11T12:44:36.414Z,15.87
2018-05-11T12:47:02.806Z,9.23
2018-05-11T12:49:29.199Z,10.17
2018-05-11T12:51:56.232Z,11.23
2018-05-11T12:54:22.612Z,12.47
2018-05-11T12:56:48.950Z,19.83
2018-05-11T12:59:15.329Z,14.33
2018-05-11T13:01:41.653Z,10.10
2018-05-11T13:04:08.149Z,12.07
2018-05-11T13:06:34.477Z,10.20
2018-05-11T13:09:01.884Z,13.40
2018-05-11T13:11:28.201Z,8.30
2018-05-11T13:13:55.292Z,9.83
2018-05-11T13:16:21.598Z,9.97
2018-05-11T13:18:47.894Z,9.10
2018-05-11T13:21:14.419Z,8.33
2018-05-11T13:23:41.499Z,8.83
2018-05-11T13:26:07.986Z,22.90
2018-05-11T13:28:34.506Z,24.20
2018-05-11T13:31:00.888Z,12.10
2018-05-11T13:33:27.234Z,10.47
2018-05-11T13:35:53.584Z,8.53
2018-05-11T13:38:20.604Z,12.50
2018-05-11T13:40:46.913Z,17.37
2018-05-11T13:43:13.261Z,13.67
2018-05-11T13:45:40.391Z,21.67
2018-05-11T13:48:06.760Z,17.00
2018-05-11T13:50:33.010Z,13.27
2018-05-11T13:53:00.012Z,17.47
2018-05-11T13:55:26.353Z,12.30
2018-05-11T13:57:52.680Z,8.87
2018-05-11T14:00:19.013Z,7.80
2018-05-11T14:02:45.403Z,16.17
2018-05-11T14:05:11.749Z,15.20
2018-05-11T14:07:38.208Z,12.27
2018-05-11T14:10:04.596Z,7.70
2018-05-11T14:12:30.890Z,8.03
2018-05-11T14:14:57.191Z,7.70
2018-05-11T14:17:23.547Z,7.97
2018-05-11T14:19:49.804Z,10.20
2018-05-11T14:22:16.193Z,8.90
2018-05-11T14:24:43.251Z,10.83
2018-05-11T14:27:10.236Z,7.37
2018-05-11T14:29:36.617Z,8.83
2018-05-11T14:32:03.002Z,8.57
2018-05-11T14:34:29.328Z,8.57
2018-05-11T14:36:55.631Z,7.80
2018-05-11T14:39:22.826Z,6.97
2018-05-11T14:41:49.088Z,8.00
2018-05-11T14:44:18.060Z,8.63
2018-05-11T14:46:44.416Z,8.80
2018-05-11T14:49:11.417Z,10.57
2018-05-11T14:51:37.786Z,7.93
2018-05-11T14:54:04.167Z,8.50
2018-05-11T14:56:30.625Z,8.37
2018-05-11T14:58:57.788Z,7.60
2018-05-11T15:01:24.903Z,7.50
2018-05-11T15:03:51.213Z,12.73
2018-05-11T15:06:17.898Z,11.57
2018-05-11T15:08:44.442Z,8.43
2018-05-11T15:11:10.721Z,8.30
2018-05-11T15:13:37.010Z,7.83
2018-05-11T15:16:03.367Z,12.40
2018-05-11T15:18:29.685Z,13.77
2018-05-11T15:20:56.032Z,13.33
2018-05-11T15:23:22.328Z,7.77
2018-05-11T15:25:48.640Z,7.70
2018-05-11T15:28:14.969Z,11.77
2018-05-11T15:30:41.380Z,12.47
2018-05-11T15:33:07.667Z,8.87
2018-05-11T15:35:34.064Z,7.67
2018-05-11T15:38:01.176Z,8.33
2018-05-11T15:40:27.581Z,8.37
2018-05-11T15:42:53.806Z,7.43
2018-05-11T15:45:21.033Z,8.47
2018-05-11T15:47:47.435Z,8.27
2018-05-11T15:50:13.767Z,7.60
2018-05-11T15:52:40.821Z,7.43
2018-05-11T15:55:07.122Z,7.37
2018-05-11T15:57:33.449Z,7.03
2018-05-11T15:59:59.883Z,10.27
2018-05-11T16:02:26.148Z,7.67
2018-05-11T16:04:52.490Z,8.10
2018-05-11T16:07:18.887Z,7.63
2018-05-11T16:09:45.348Z,8.23
2018-05-11T16:12:11.766Z,7.93
2018-05-11T16:14:39.152Z,8.30
2018-05-11T16:17:06.258Z,8.50
2018-05-11T16:19:32.672Z,8.57
2018-05-11T16:21:59.028Z,7.93
2018-05-11T16:24:25.347Z,8.60
2018-05-11T16:26:52.439Z,8.23
2018-05-11T16:29:18.761Z,8.47
2018-05-11T16:31:45.199Z,8.80
2018-05-11T16:34:11.498Z,7.83
2018-05-11T16:36:37.849Z,9.23
2018-05-11T16:39:05.159Z,8.70
2018-05-11T16:41:31.574Z,8.57
2018-05-11T16:43:57.903Z,8.50
2018-05-11T16:46:25.582Z,7.40
2018-05-11T16:48:51.906Z,8.77
2018-05-11T16:51:19.070Z,8.33
2018-05-11T16:53:45.546Z,13.40
2018-05-11T16:56:12.745Z,8.07
2018-05-11T16:58:39.488Z,8.30
2018-05-11T17:01:05.863Z,10.50
2018-05-11T17:03:32.166Z,15.57
2018-05-11T17:05:59.270Z,12.47
2018-05-11T17:08:25.671Z,12.07
2018-05-11T17:10:52.817Z,10.83
2018-05-11T17:13:19.227Z,12.20
2018-05-11T17:15:45.569Z,12.70
2018-05-11T17:18:11.996Z,12.10
2018-05-11T17:20:38.286Z,11.83
2018-05-11T17:23:04.676Z,11.17
2018-05-11T17:25:31.008Z,9.90
2018-05-11T17:27:57.348Z,11.83
2018-05-11T17:30:23.682Z,10.53
2018-05-11T17:32:50.908Z,11.10
2018-05-11T17:35:17.259Z,12.27
2018-05-11T17:37:43.575Z,11.27
2018-05-11T17:40:09.911Z,13.37
2018-05-11T17:42:36.273Z,14.73
2018-05-11T17:45:02.639Z,16.73
2018-05-11T17:47:29.029Z,14.90
2018-05-11T17:49:55.396Z,16.73
2018-05-11T17:52:21.697Z,15.93
2018-05-11T17:54:48.802Z,20.57
2018-05-11T17:57:15.128Z,19.50
2018-05-11T17:59:41.493Z,20.93
2018-05-11T18:02:07.882Z,23.67
2018-05-11T18:04:34.905Z,21.20
2018-05-11T18:07:01.321Z,23.60
2018-05-11T18:09:27.607Z,23.10
2018-05-11T18:11:53.968Z,25.27
2018-05-11T18:14:21.121Z,24.37
2018-05-11T18:16:47.521Z,25.30
2018-05-11T18:19:13.797Z,39.33
2018-05-11T18:21:40.081Z,26.73
2018-05-11T18:24:06.395Z,57.47
2018-05-11T18:26:32.719Z,37.50
2018-05-11T18:28:59.007Z,34.30
2018-05-11T18:31:25.362Z,26.17
2018-05-11T18:33:51.611Z,31.07
2018-05-11T18:36:17.932Z,37.43
2018-05-11T18:38:44.261Z,32.97
2018-05-11T18:41:10.617Z,28.67
2018-05-11T18:43:37.142Z,38.00
2018-05-11T18:46:03.456Z,29.90
2018-05-11T18:48:29.881Z,29.07
2018-05-11T18:50:56.234Z,28.47
2018-05-11T18:53:22.829Z,26.30
2018-05-11T18:55:49.733Z,28.60
2018-05-11T18:58:16.133Z,27.97
2018-05-11T19:00:43.376Z,30.20
2018-05-11T19:03:09.823Z,32.37
2018-05-11T19:05:36.141Z,26.70
2018-05-11T19:08:02.490Z,29.93
2018-05-11T19:10:28.764Z,29.00
2018-05-11T19:12:55.183Z,30.73
2018-05-11T19:15:21.539Z,29.83
2018-05-11T19:17:48.661Z,30.87
2018-05-11T19:20:15.429Z,33.30
2018-05-11T19:22:42.626Z,32.43
2018-05-11T19:25:09.036Z,33.70
2018-05-11T19:27:36.140Z,34.50
2018-05-11T19:30:02.561Z,32.50
2018-05-11T19:32:28.889Z,34.13
2018-05-11T19:34:55.198Z,33.43
2018-05-11T19:37:22.281Z,30.97
2018-05-11T19:39:48.557Z,34.87
2018-05-11T19:42:15.841Z,34.00
2018-05-11T19:44:42.128Z,34.50
2018-05-11T19:47:08.431Z,32.77
2018-05-11T19:49:35.746Z,32.57
2018-05-11T19:52:02.071Z,31.80
2018-05-11T19:54:28.427Z,35.17
2018-05-11T19:56:54.835Z,33.00
2018-05-11T19:59:21.936Z,34.30
2018-05-11T20:01:48.281Z,34.97
2018-05-11T20:04:14.604Z,32.60
2018-05-11T20:06:40.993Z,33.47
2018-05-11T20:09:07.306Z,35.10
2018-05-11T20:11:33.643Z,35.57
2018-05-11T20:14:00.793Z,31.70
2018-05-11T20:16:27.836Z,30.07
2018-05-11T20:18:56.265Z,33.80
2018-05-11T20:21:22.630Z,34.37
2018-05-11T20:23:49.097Z,31.90
2018-05-11T20:26:16.206Z,33.27
2018-05-11T20:28:46.097Z,32.23
2018-05-11T20:31:12.400Z,30.70
2018-05-11T20:33:45.560Z,32.43
2018-05-11T20:36:11.893Z,30.10
2018-05-11T20:38:38.215Z,31.60
2018-05-11T20:41:04.626Z,31.33
2018-05-11T20:43:30.940Z,30.23
2018-05-11T20:45:57.322Z,30.13
2018-05-11T20:48:23.658Z,29.13
2018-05-11T20:50:50.300Z,30.67
2018-05-11T20:53:16.607Z,30.80
2018-05-11T20:55:44.062Z,31.07
2018-05-11T20:58:10.400Z,29.63
2018-05-11T21:00:36.729Z,31.63
2018-05-11T21:03:05.145Z,30.40
2018-05-11T21:05:31.469Z,30.23
2018-05-11T21:07:57.788Z,31.57
2018-05-11T21:10:24.097Z,31.17
2018-05-11T21:12:53.254Z,30.67
2018-05-11T21:15:19.796Z,30.33
2018-05-11T21:17:46.106Z,29.23
2018-05-11T21:20:12.645Z,32.27
2018-05-11T21:22:39.688Z,31.77
2018-05-11T21:25:06.168Z,32.77
2018-05-11T21:27:32.479Z,31.53
2018-05-11T21:29:58.826Z,32.00
2018-05-11T21:32:25.078Z,31.70
2018-05-11T21:34:52.102Z,31.67
2018-05-11T21:37:18.581Z,30.80
2018-05-11T21:39:45.629Z,32.97
2018-05-11T21:42:11.958Z,32.80
2018-05-11T21:44:38.276Z,33.87
2018-05-11T21:47:04.617Z,34.30
2018-05-11T21:49:30.965Z,32.77
2018-05-11T21:51:57.330Z,36.03
2018-05-11T21:54:23.735Z,34.87
2018-05-11T21:56:50.783Z,35.67
2018-05-11T21:59:17.182Z,33.97
2018-05-11T22:01:43.720Z,35.83
2018-05-11T22:04:10.763Z,35.23
2018-05-11T22:06:37.247Z,33.03
2018-05-11T22:09:03.782Z,34.73
2018-05-11T22:11:30.186Z,33.67
2018-05-11T22:13:56.568Z,34.50
2018-05-11T22:16:22.921Z,36.17
2018-05-11T22:18:49.289Z,34.67
2018-05-11T22:21:16.393Z,36.70
2018-05-11T22:23:42.759Z,34.23
2018-05-11T22:26:09.779Z,35.40
2018-05-11T22:28:36.142Z,35.63
2018-05-11T22:31:02.501Z,34.93
2018-05-11T22:33:29.569Z,36.03
2018-05-11T22:35:55.920Z,36.90
2018-05-11T22:38:22.245Z,34.57
2018-05-11T22:40:48.674Z,34.90
2018-05-11T22:43:15.110Z,33.87
2018-05-11T22:45:41.427Z,34.10
2018-05-11T22:48:08.477Z,36.30
2018-05-11T22:50:34.797Z,33.30
2018-05-11T22:53:01.113Z,34.37
2018-05-11T22:55:27.550Z,33.57
2018-05-11T22:57:57.919Z,35.07
2018-05-11T23:00:24.234Z,33.47
2018-05-11T23:02:50.551Z,33.37
2018-05-11T23:05:16.866Z,34.57
2018-05-11T23:07:43.198Z,35.43
2018-05-11T23:10:09.498Z,36.57
2018-05-11T23:12:35.850Z,33.10
2018-05-11T23:15:02.231Z,35.97
2018-05-11T23:17:28.563Z,36.00
2018-05-11T23:19:54.941Z,34.10
2018-05-11T23:22:21.999Z,34.77
2018-05-11T23:24:49.175Z,35.10
2018-05-11T23:27:16.203Z,35.53
2018-05-11T23:29:42.617Z,34.10
2018-05-11T23:32:08.957Z,37.73
2018-05-11T23:34:35.263Z,37.33
2018-05-11T23:37:02.411Z,34.70
2018-05-11T23:39:28.740Z,36.33
2018-05-11T23:41:55.052Z,36.90
2018-05-11T23:44:21.361Z,37.00
2018-05-11T23:46:48.473Z,35.87
2018-05-11T23:49:14.803Z,37.00
2018-05-11T23:51:41.869Z,36.87
2018-05-11T23:54:08.206Z,35.13
2018-05-11T23:56:36.580Z,34.40
2018-05-11T23:59:02.904Z,38.73
